sensor_id;sensor_type;location;lat;lon;timestamp;pressure;altitude;pressure_sealevel;temperature;humidity
65384;BME280;51986;52.788;41.368;2022-08-21T00:00:50;100130.44;;;17.16;36.41
65384;BME280;51986;52.788;41.368;2022-08-21T00:03:23;100090.03;;;17.17;36.18
65384;BME280;51986;52.788;41.368;2022-08-21T00:05:50;100103.50;;;16.94;36.66
65384;BME280;51986;52.788;41.368;2022-08-21T00:08:33;100091.72;;;17.28;36.36
65384;BME280;51986;52.788;41.368;2022-08-21T00:11:02;100108.00;;;16.97;36.61
65384;BME280;51986;52.788;41.368;2022-08-21T00:13:29;100097.44;;;16.93;36.34
65384;BME280;51986;52.788;41.368;2022-08-21T00:15:56;100100.13;;;17.10;36.55
65384;BME280;51986;52.788;41.368;2022-08-21T00:18:23;100092.03;;;17.13;36.59
65384;BME280;51986;52.788;41.368;2022-08-21T00:20:50;100091.38;;;17.09;36.28
65384;BME280;51986;52.788;41.368;2022-08-21T00:23:19;100106.28;;;17.07;35.89
65384;BME280;51986;52.788;41.368;2022-08-21T00:25:46;100129.25;;;17.17;36.31
65384;BME280;51986;52.788;41.368;2022-08-21T00:28:14;100099.19;;;17.00;36.34
65384;BME280;51986;52.788;41.368;2022-08-21T00:30:42;100096.84;;;17.02;36.38
65384;BME280;51986;52.788;41.368;2022-08-21T00:33:10;100129.25;;;17.01;36.76
65384;BME280;51986;52.788;41.368;2022-08-21T00:35:39;100097.84;;;16.92;36.88
65384;BME280;51986;52.788;41.368;2022-08-21T00:38:07;100099.69;;;16.95;37.15
65384;BME280;51986;52.788;41.368;2022-08-21T00:40:51;100106.25;;;16.90;37.18
65384;BME280;51986;52.788;41.368;2022-08-21T00:43:24;100110.88;;;16.70;37.26
65384;BME280;51986;52.788;41.368;2022-08-21T00:45:51;100122.31;;;16.87;37.37
65384;BME280;51986;52.788;41.368;2022-08-21T00:48:18;100109.50;;;16.82;36.93
65384;BME280;51986;52.788;41.368;2022-08-21T00:50:55;100105.41;;;16.77;37.09
65384;BME280;51986;52.788;41.368;2022-08-21T00:53:24;100089.97;;;16.68;36.97
65384;BME280;51986;52.788;41.368;2022-08-21T00:55:51;100096.72;;;16.57;37.38
65384;BME280;51986;52.788;41.368;2022-08-21T00:58:22;100104.41;;;16.51;37.73
65384;BME280;51986;52.788;41.368;2022-08-21T01:00:51;100097.59;;;16.50;37.56
65384;BME280;51986;52.788;41.368;2022-08-21T01:03:22;100116.09;;;16.57;37.71
65384;BME280;51986;52.788;41.368;2022-08-21T01:05:51;100106.75;;;16.49;37.67
65384;BME280;51986;52.788;41.368;2022-08-21T01:08:19;100123.59;;;16.62;37.85
65384;BME280;51986;52.788;41.368;2022-08-21T01:10:47;100131.19;;;16.64;37.75
65384;BME280;51986;52.788;41.368;2022-08-21T01:13:25;100109.41;;;16.49;37.95
65384;BME280;51986;52.788;41.368;2022-08-21T01:15:56;100112.13;;;16.45;38.33
65384;BME280;51986;52.788;41.368;2022-08-21T01:18:23;100106.72;;;16.33;38.88
65384;BME280;51986;52.788;41.368;2022-08-21T01:21:03;100109.56;;;16.42;38.76
65384;BME280;51986;52.788;41.368;2022-08-21T01:23:31;100098.03;;;16.29;38.70
65384;BME280;51986;52.788;41.368;2022-08-21T01:25:58;100116.03;;;16.41;38.93
65384;BME280;51986;52.788;41.368;2022-08-21T01:28:26;100103.88;;;16.40;38.95
65384;BME280;51986;52.788;41.368;2022-08-21T01:30:54;100106.22;;;16.38;38.63
65384;BME280;51986;52.788;41.368;2022-08-21T01:33:24;100116.84;;;16.18;39.28
65384;BME280;51986;52.788;41.368;2022-08-21T01:35:51;100105.97;;;16.32;39.10
65384;BME280;51986;52.788;41.368;2022-08-21T01:38:18;100105.66;;;16.27;38.94
65384;BME280;51986;52.788;41.368;2022-08-21T01:40:45;100109.75;;;16.31;38.92
65384;BME280;51986;52.788;41.368;2022-08-21T01:43:12;100105.91;;;16.12;39.26
65384;BME280;51986;52.788;41.368;2022-08-21T01:45:44;100121.16;;;16.52;39.01
65384;BME280;51986;52.788;41.368;2022-08-21T01:48:12;100112.09;;;16.29;39.24
65384;BME280;51986;52.788;41.368;2022-08-21T01:50:39;100128.31;;;16.15;39.01
65384;BME280;51986;52.788;41.368;2022-08-21T01:53:06;100130.72;;;16.49;38.39
65384;BME280;51986;52.788;41.368;2022-08-21T01:55:32;100117.72;;;16.51;38.68
65384;BME280;51986;52.788;41.368;2022-08-21T01:58:00;100124.22;;;16.30;38.97
65384;BME280;51986;52.788;41.368;2022-08-21T02:00:27;100125.22;;;16.16;39.38
65384;BME280;51986;52.788;41.368;2022-08-21T02:02:54;100120.53;;;16.04;39.52
65384;BME280;51986;52.788;41.368;2022-08-21T02:05:21;100141.59;;;15.95;40.04
65384;BME280;51986;52.788;41.368;2022-08-21T02:07:50;100124.72;;;16.25;39.56
65384;BME280;51986;52.788;41.368;2022-08-21T02:10:50;100134.88;;;16.30;39.47
65384;BME280;51986;52.788;41.368;2022-08-21T02:13:43;100123.53;;;16.46;39.34
65384;BME280;51986;52.788;41.368;2022-08-21T02:16:11;100110.28;;;16.62;38.79
65384;BME280;51986;52.788;41.368;2022-08-21T02:19:02;100124.72;;;16.81;39.07
65384;BME280;51986;52.788;41.368;2022-08-21T02:21:29;100119.63;;;16.70;39.52
65384;BME280;51986;52.788;41.368;2022-08-21T02:23:56;100145.25;;;16.64;39.97
65384;BME280;51986;52.788;41.368;2022-08-21T02:26:22;100124.13;;;16.74;39.91
65384;BME280;51986;52.788;41.368;2022-08-21T02:28:49;100112.41;;;16.51;40.44
65384;BME280;51986;52.788;41.368;2022-08-21T02:31:16;100141.38;;;16.49;40.07
65384;BME280;51986;52.788;41.368;2022-08-21T02:33:43;100120.75;;;16.53;40.04
65384;BME280;51986;52.788;41.368;2022-08-21T02:36:11;100112.28;;;16.58;39.86
65384;BME280;51986;52.788;41.368;2022-08-21T02:38:40;100124.13;;;16.74;39.53
65384;BME280;51986;52.788;41.368;2022-08-21T02:41:12;100119.66;;;16.51;39.90
65384;BME280;51986;52.788;41.368;2022-08-21T02:43:40;100137.06;;;16.55;39.89
65384;BME280;51986;52.788;41.368;2022-08-21T02:46:10;100131.78;;;16.72;39.71
65384;BME280;51986;52.788;41.368;2022-08-21T02:48:38;100144.94;;;16.79;39.80
65384;BME280;51986;52.788;41.368;2022-08-21T02:51:18;100147.47;;;16.86;39.27
65384;BME280;51986;52.788;41.368;2022-08-21T02:53:46;100130.09;;;16.98;39.19
65384;BME280;51986;52.788;41.368;2022-08-21T02:56:18;100158.78;;;17.26;38.89
65384;BME280;51986;52.788;41.368;2022-08-21T02:58:49;100135.91;;;17.09;38.98
65384;BME280;51986;52.788;41.368;2022-08-21T03:01:17;100128.34;;;16.91;39.13
65384;BME280;51986;52.788;41.368;2022-08-21T03:03:46;100142.97;;;16.99;38.98
65384;BME280;51986;52.788;41.368;2022-08-21T03:06:15;100135.78;;;17.16;38.69
65384;BME280;51986;52.788;41.368;2022-08-21T03:08:43;100132.81;;;16.94;38.48
65384;BME280;51986;52.788;41.368;2022-08-21T03:11:12;100146.84;;;17.14;38.57
65384;BME280;51986;52.788;41.368;2022-08-21T03:13:39;100128.69;;;17.09;37.97
65384;BME280;51986;52.788;41.368;2022-08-21T03:16:06;100156.56;;;17.25;37.69
65384;BME280;51986;52.788;41.368;2022-08-21T03:18:35;100138.38;;;17.36;37.49
65384;BME280;51986;52.788;41.368;2022-08-21T03:21:03;100141.31;;;17.58;36.96
65384;BME280;51986;52.788;41.368;2022-08-21T03:23:31;100131.84;;;17.69;37.48
65384;BME280;51986;52.788;41.368;2022-08-21T03:26:00;100160.88;;;17.67;37.02
65384;BME280;51986;52.788;41.368;2022-08-21T03:28:27;100168.03;;;17.87;36.42
65384;BME280;51986;52.788;41.368;2022-08-21T03:30:54;100138.00;;;17.83;36.57
65384;BME280;51986;52.788;41.368;2022-08-21T03:33:21;100138.31;;;17.85;36.73
65384;BME280;51986;52.788;41.368;2022-08-21T03:36:00;100152.06;;;17.99;36.06
65384;BME280;51986;52.788;41.368;2022-08-21T03:38:29;100158.91;;;18.01;35.63
65384;BME280;51986;52.788;41.368;2022-08-21T03:40:58;100144.94;;;18.26;35.36
65384;BME280;51986;52.788;41.368;2022-08-21T03:43:26;100153.25;;;18.28;35.62
65384;BME280;51986;52.788;41.368;2022-08-21T03:45:57;100141.91;;;18.23;35.84
65384;BME280;51986;52.788;41.368;2022-08-21T03:48:24;100150.34;;;18.22;35.76
65384;BME280;51986;52.788;41.368;2022-08-21T03:50:52;100164.31;;;18.13;35.97
65384;BME280;51986;52.788;41.368;2022-08-21T03:53:19;100161.19;;;18.31;35.76
65384;BME280;51986;52.788;41.368;2022-08-21T03:55:48;100155.13;;;18.43;36.18
65384;BME280;51986;52.788;41.368;2022-08-21T03:58:18;100158.16;;;18.71;35.17
65384;BME280;51986;52.788;41.368;2022-08-21T04:00:47;100151.66;;;19.36;34.08
65384;BME280;51986;52.788;41.368;2022-08-21T04:03:16;100157.63;;;19.52;34.30
65384;BME280;51986;52.788;41.368;2022-08-21T04:05:43;100153.69;;;19.92;32.91
65384;BME280;51986;52.788;41.368;2022-08-21T04:08:10;100150.88;;;19.95;32.78
65384;BME280;51986;52.788;41.368;2022-08-21T04:10:39;100155.94;;;20.15;33.19
65384;BME280;51986;52.788;41.368;2022-08-21T04:13:07;100147.09;;;20.49;32.14
65384;BME280;51986;52.788;41.368;2022-08-21T04:15:35;100144.59;;;19.89;33.72
65384;BME280;51986;52.788;41.368;2022-08-21T04:18:03;100162.03;;;19.94;33.89
65384;BME280;51986;52.788;41.368;2022-08-21T04:20:30;100153.88;;;19.97;33.49
65384;BME280;51986;52.788;41.368;2022-08-21T04:22:59;100157.38;;;20.07;33.46
65384;BME280;51986;52.788;41.368;2022-08-21T04:25:26;100158.53;;;20.50;33.28
65384;BME280;51986;52.788;41.368;2022-08-21T04:27:53;100144.19;;;20.66;32.83
65384;BME280;51986;52.788;41.368;2022-08-21T04:30:20;100145.66;;;20.89;31.02
65384;BME280;51986;52.788;41.368;2022-08-21T04:32:57;100162.03;;;21.31;30.75
65384;BME280;51986;52.788;41.368;2022-08-21T04:35:38;100170.22;;;21.37;28.66
65384;BME280;51986;52.788;41.368;2022-08-21T04:38:06;100161.78;;;21.47;28.41
65384;BME280;51986;52.788;41.368;2022-08-21T04:40:50;100176.06;;;21.44;28.54
65384;BME280;51986;52.788;41.368;2022-08-21T04:43:21;100150.03;;;21.14;28.50
65384;BME280;51986;52.788;41.368;2022-08-21T04:45:48;100149.47;;;21.28;28.25
65384;BME280;51986;52.788;41.368;2022-08-21T04:48:18;100143.97;;;21.22;28.27
65384;BME280;51986;52.788;41.368;2022-08-21T04:50:50;100157.69;;;21.34;28.27
65384;BME280;51986;52.788;41.368;2022-08-21T04:53:34;100173.56;;;21.41;27.90
65384;BME280;51986;52.788;41.368;2022-08-21T04:56:06;100172.81;;;21.40;27.99
65384;BME280;51986;52.788;41.368;2022-08-21T04:58:36;100166.13;;;21.82;28.17
65384;BME280;51986;52.788;41.368;2022-08-21T05:01:07;100166.72;;;21.76;28.45
65384;BME280;51986;52.788;41.368;2022-08-21T05:03:36;100182.25;;;21.91;28.24
65384;BME280;51986;52.788;41.368;2022-08-21T05:06:07;100155.09;;;21.61;28.83
65384;BME280;51986;52.788;41.368;2022-08-21T05:08:36;100157.16;;;21.57;28.25
65384;BME280;51986;52.788;41.368;2022-08-21T05:11:04;100151.94;;;21.53;28.48
65384;BME280;51986;52.788;41.368;2022-08-21T05:13:32;100169.22;;;21.43;28.40
65384;BME280;51986;52.788;41.368;2022-08-21T05:15:59;100179.28;;;21.98;28.33
65384;BME280;51986;52.788;41.368;2022-08-21T05:18:26;100134.34;;;21.71;28.61
65384;BME280;51986;52.788;41.368;2022-08-21T05:21:00;100175.56;;;22.14;28.55
65384;BME280;51986;52.788;41.368;2022-08-21T05:23:27;100171.97;;;22.08;28.40
65384;BME280;51986;52.788;41.368;2022-08-21T05:25:54;100160.63;;;22.03;28.70
65384;BME280;51986;52.788;41.368;2022-08-21T05:28:21;100152.22;;;21.46;28.82
65384;BME280;51986;52.788;41.368;2022-08-21T05:30:49;100168.06;;;22.09;27.77
65384;BME280;51986;52.788;41.368;2022-08-21T05:33:15;100179.09;;;22.38;27.92
65384;BME280;51986;52.788;41.368;2022-08-21T05:35:42;100179.22;;;22.44;27.64
65384;BME280;51986;52.788;41.368;2022-08-21T05:38:10;100176.16;;;22.27;27.90
65384;BME280;51986;52.788;41.368;2022-08-21T05:40:47;100181.03;;;22.10;27.59
65384;BME280;51986;52.788;41.368;2022-08-21T05:43:14;100176.72;;;22.03;27.70
65384;BME280;51986;52.788;41.368;2022-08-21T05:45:42;100173.81;;;22.62;27.00
65384;BME280;51986;52.788;41.368;2022-08-21T05:48:18;100161.09;;;23.14;26.78
65384;BME280;51986;52.788;41.368;2022-08-21T05:50:51;100167.06;;;23.42;25.69
65384;BME280;51986;52.788;41.368;2022-08-21T05:53:20;100149.97;;;23.45;26.36
65384;BME280;51986;52.788;41.368;2022-08-21T05:55:47;100139.88;;;23.55;25.58
65384;BME280;51986;52.788;41.368;2022-08-21T05:58:19;100166.53;;;23.53;25.25
65384;BME280;51986;52.788;41.368;2022-08-21T06:00:53;100167.53;;;23.79;24.50
65384;BME280;51986;52.788;41.368;2022-08-21T06:03:23;100169.75;;;23.66;24.88
65384;BME280;51986;52.788;41.368;2022-08-21T06:05:51;100158.03;;;23.69;25.12
65384;BME280;51986;52.788;41.368;2022-08-21T06:08:19;100186.25;;;23.59;25.16
65384;BME280;51986;52.788;41.368;2022-08-21T06:10:47;100171.75;;;23.32;25.71
65384;BME280;51986;52.788;41.368;2022-08-21T06:13:35;100166.47;;;23.38;25.38
65384;BME280;51986;52.788;41.368;2022-08-21T06:16:10;100157.34;;;23.83;24.64
65384;BME280;51986;52.788;41.368;2022-08-21T06:18:43;100153.25;;;23.88;24.23
65384;BME280;51986;52.788;41.368;2022-08-21T06:21:11;100172.75;;;24.37;24.52
65384;BME280;51986;52.788;41.368;2022-08-21T06:23:39;100181.94;;;23.76;24.46
65384;BME280;51986;52.788;41.368;2022-08-21T06:26:07;100156.44;;;24.01;24.35
65384;BME280;51986;52.788;41.368;2022-08-21T06:28:35;100172.31;;;23.85;24.76
65384;BME280;51986;52.788;41.368;2022-08-21T06:31:18;100166.88;;;24.23;24.10
65384;BME280;51986;52.788;41.368;2022-08-21T06:33:46;100161.09;;;24.16;24.50
65384;BME280;51986;52.788;41.368;2022-08-21T06:36:13;100153.25;;;23.88;24.83
65384;BME280;51986;52.788;41.368;2022-08-21T06:38:44;100167.19;;;23.87;25.41
65384;BME280;51986;52.788;41.368;2022-08-21T06:41:18;100151.69;;;23.33;25.35
65384;BME280;51986;52.788;41.368;2022-08-21T06:43:53;100154.94;;;23.86;25.33
65384;BME280;51986;52.788;41.368;2022-08-21T06:46:20;100147.59;;;23.86;25.75
65384;BME280;51986;52.788;41.368;2022-08-21T06:48:49;100139.19;;;23.69;25.87
65384;BME280;51986;52.788;41.368;2022-08-21T06:51:17;100151.78;;;24.02;25.04
65384;BME280;51986;52.788;41.368;2022-08-21T06:56:38;100131.28;;;24.99;24.96
65384;BME280;51986;52.788;41.368;2022-08-21T06:59:05;100150.50;;;24.71;25.50
65384;BME280;51986;52.788;41.368;2022-08-21T07:01:32;100151.38;;;24.98;25.02
65384;BME280;51986;52.788;41.368;2022-08-21T07:03:59;100132.66;;;25.29;24.63
65384;BME280;51986;52.788;41.368;2022-08-21T07:06:26;100144.19;;;25.50;24.79
65384;BME280;51986;52.788;41.368;2022-08-21T07:08:54;100133.13;;;25.48;24.52
65384;BME280;51986;52.788;41.368;2022-08-21T07:11:25;100114.00;;;25.31;24.31
65384;BME280;51986;52.788;41.368;2022-08-21T07:13:52;100144.50;;;25.78;23.22
65384;BME280;51986;52.788;41.368;2022-08-21T07:16:27;100136.03;;;25.65;23.76
65384;BME280;51986;52.788;41.368;2022-08-21T07:18:54;100130.88;;;25.47;24.33
65384;BME280;51986;52.788;41.368;2022-08-21T07:21:21;100128.31;;;25.38;24.07
65384;BME280;51986;52.788;41.368;2022-08-21T07:23:55;100118.00;;;25.16;24.19
65384;BME280;51986;52.788;41.368;2022-08-21T07:26:23;100093.88;;;25.32;24.09
65384;BME280;51986;52.788;41.368;2022-08-21T07:28:53;100128.03;;;25.56;23.19
65384;BME280;51986;52.788;41.368;2022-08-21T07:31:23;100130.56;;;25.59;24.03
65384;BME280;51986;52.788;41.368;2022-08-21T07:33:53;100112.03;;;25.73;24.20
65384;BME280;51986;52.788;41.368;2022-08-21T07:36:21;100132.91;;;25.72;23.22
65384;BME280;51986;52.788;41.368;2022-08-21T07:38:48;100129.38;;;25.66;23.10
65384;BME280;51986;52.788;41.368;2022-08-21T07:41:26;100124.81;;;26.24;23.47
65384;BME280;51986;52.788;41.368;2022-08-21T07:43:56;100106.88;;;26.27;24.56
65384;BME280;51986;52.788;41.368;2022-08-21T07:46:25;100098.38;;;25.82;22.77
65384;BME280;51986;52.788;41.368;2022-08-21T07:48:52;100101.00;;;26.02;22.01
65384;BME280;51986;52.788;41.368;2022-08-21T07:51:24;100094.97;;;26.19;22.27
65384;BME280;51986;52.788;41.368;2022-08-21T07:53:54;100110.34;;;26.33;22.20
65384;BME280;51986;52.788;41.368;2022-08-21T07:56:21;100106.03;;;26.47;22.15
65384;BME280;51986;52.788;41.368;2022-08-21T07:58:51;100095.44;;;26.43;21.76
65384;BME280;51986;52.788;41.368;2022-08-21T08:01:20;100104.19;;;26.27;21.79
65384;BME280;51986;52.788;41.368;2022-08-21T08:03:47;100118.09;;;26.46;22.08
65384;BME280;51986;52.788;41.368;2022-08-21T08:06:16;100098.16;;;26.43;21.83
65384;BME280;51986;52.788;41.368;2022-08-21T08:08:46;100106.31;;;26.49;21.41
65384;BME280;51986;52.788;41.368;2022-08-21T08:11:13;100094.22;;;26.44;22.11
65384;BME280;51986;52.788;41.368;2022-08-21T08:13:46;100107.78;;;26.87;21.04
65384;BME280;51986;52.788;41.368;2022-08-21T08:16:18;100088.75;;;26.76;21.02
65384;BME280;51986;52.788;41.368;2022-08-21T08:18:45;100092.44;;;26.73;21.41
65384;BME280;51986;52.788;41.368;2022-08-21T08:21:15;100072.34;;;26.91;21.05
65384;BME280;51986;52.788;41.368;2022-08-21T08:23:42;100090.13;;;27.03;21.21
65384;BME280;51986;52.788;41.368;2022-08-21T08:26:11;100091.63;;;27.04;20.24
65384;BME280;51986;52.788;41.368;2022-08-21T08:28:41;100085.56;;;27.37;20.67
65384;BME280;51986;52.788;41.368;2022-08-21T08:31:13;100072.53;;;27.41;20.77
65384;BME280;51986;52.788;41.368;2022-08-21T08:33:40;100080.16;;;27.31;20.69
65384;BME280;51986;52.788;41.368;2022-08-21T08:36:13;100081.28;;;27.02;20.95
65384;BME280;51986;52.788;41.368;2022-08-21T08:38:44;100068.47;;;26.97;20.38
65384;BME280;51986;52.788;41.368;2022-08-21T08:41:20;100080.38;;;27.33;19.72
65384;BME280;51986;52.788;41.368;2022-08-21T08:43:54;100067.66;;;27.45;19.19
65384;BME280;51986;52.788;41.368;2022-08-21T08:46:46;100083.13;;;27.39;19.52
65384;BME280;51986;52.788;41.368;2022-08-21T08:49:19;100052.78;;;27.24;20.30
65384;BME280;51986;52.788;41.368;2022-08-21T08:52:07;100067.31;;;27.15;19.54
65384;BME280;51986;52.788;41.368;2022-08-21T08:54:46;100040.31;;;27.49;20.84
65384;BME280;51986;52.788;41.368;2022-08-21T08:57:20;100058.56;;;27.65;19.96
65384;BME280;51986;52.788;41.368;2022-08-21T08:59:56;100064.81;;;27.06;18.61
65384;BME280;51986;52.788;41.368;2022-08-21T09:02:25;100066.00;;;27.05;18.64
65384;BME280;51986;52.788;41.368;2022-08-21T09:04:53;100048.56;;;27.06;18.67
65384;BME280;51986;52.788;41.368;2022-08-21T09:15:56;100049.38;;;27.40;19.28
65384;BME280;51986;52.788;41.368;2022-08-21T09:18:41;100048.16;;;27.35;18.73
65384;BME280;51986;52.788;41.368;2022-08-21T09:21:30;100059.19;;;27.21;18.54
65384;BME280;51986;52.788;41.368;2022-08-21T09:27:13;100043.16;;;27.17;18.75
65384;BME280;51986;52.788;41.368;2022-08-21T09:29:43;100035.34;;;27.30;18.54
65384;BME280;51986;52.788;41.368;2022-08-21T09:32:22;100058.06;;;27.61;18.64
65384;BME280;51986;52.788;41.368;2022-08-21T09:35:14;100055.03;;;27.42;18.64
65384;BME280;51986;52.788;41.368;2022-08-21T09:40:23;100047.13;;;27.16;19.77
65384;BME280;51986;52.788;41.368;2022-08-21T09:42:56;100047.44;;;26.81;19.52
65384;BME280;51986;52.788;41.368;2022-08-21T09:45:26;100030.88;;;27.27;18.82
65384;BME280;51986;52.788;41.368;2022-08-21T09:48:14;100025.97;;;27.43;19.00
65384;BME280;51986;52.788;41.368;2022-08-21T09:50:42;100027.00;;;27.45;18.75
65384;BME280;51986;52.788;41.368;2022-08-21T09:55:57;100047.41;;;27.35;18.11
65384;BME280;51986;52.788;41.368;2022-08-21T09:58:36;100023.31;;;27.48;17.59
65384;BME280;51986;52.788;41.368;2022-08-21T10:01:05;100029.22;;;27.52;17.41
65384;BME280;51986;52.788;41.368;2022-08-21T10:03:33;100008.31;;;27.58;17.43
65384;BME280;51986;52.788;41.368;2022-08-21T10:06:03;100033.19;;;27.68;17.58
65384;BME280;51986;52.788;41.368;2022-08-21T10:08:39;100036.63;;;27.69;17.04
65384;BME280;51986;52.788;41.368;2022-08-21T10:11:13;100028.75;;;27.71;17.14
65384;BME280;51986;52.788;41.368;2022-08-21T10:22:07;100033.69;;;28.17;16.88
65384;BME280;51986;52.788;41.368;2022-08-21T10:33:41;100034.31;;;28.57;16.69
65384;BME280;51986;52.788;41.368;2022-08-21T10:36:19;100026.41;;;28.70;17.13
65384;BME280;51986;52.788;41.368;2022-08-21T10:42:12;99998.63;;;28.25;16.63
65384;BME280;51986;52.788;41.368;2022-08-21T10:45:11;100000.06;;;28.48;16.72
65384;BME280;51986;52.788;41.368;2022-08-21T10:47:48;100006.47;;;28.51;16.85
65384;BME280;51986;52.788;41.368;2022-08-21T10:50:41;99990.81;;;27.87;16.75
65384;BME280;51986;52.788;41.368;2022-08-21T10:53:47;99995.25;;;27.79;16.66
65384;BME280;51986;52.788;41.368;2022-08-21T10:56:23;99996.47;;;27.67;17.00
65384;BME280;51986;52.788;41.368;2022-08-21T11:01:54;99988.34;;;27.73;16.61
65384;BME280;51986;52.788;41.368;2022-08-21T11:04:30;99994.72;;;27.53;16.99
65384;BME280;51986;52.788;41.368;2022-08-21T11:07:35;99978.69;;;28.00;17.42
65384;BME280;51986;52.788;41.368;2022-08-21T11:10:19;99993.25;;;28.08;16.50
65384;BME280;51986;52.788;41.368;2022-08-21T11:12:58;100001.13;;;28.17;16.29
65384;BME280;51986;52.788;41.368;2022-08-21T11:18:14;99976.75;;;27.95;16.27
65384;BME280;51986;52.788;41.368;2022-08-21T11:20:50;99982.66;;;27.76;16.70
65384;BME280;51986;52.788;41.368;2022-08-21T11:23:25;99985.88;;;27.75;15.86
65384;BME280;51986;52.788;41.368;2022-08-21T11:26:04;99977.97;;;27.77;16.82
65384;BME280;51986;52.788;41.368;2022-08-21T11:28:45;99977.25;;;27.87;17.09
65384;BME280;51986;52.788;41.368;2022-08-21T11:37:44;99974.78;;;27.45;17.18
65384;BME280;51986;52.788;41.368;2022-08-21T11:43:20;99980.81;;;26.89;18.60
65384;BME280;51986;52.788;41.368;2022-08-21T11:45:54;99967.56;;;27.02;18.18
65384;BME280;51986;52.788;41.368;2022-08-21T11:51:48;99993.16;;;27.01;18.62
65384;BME280;51986;52.788;41.368;2022-08-21T11:54:42;99994.19;;;27.21;18.15
65384;BME280;51986;52.788;41.368;2022-08-21T12:00:28;99960.63;;;26.96;17.54
65384;BME280;51986;52.788;41.368;2022-08-21T12:03:13;99971.28;;;27.22;18.03
65384;BME280;51986;52.788;41.368;2022-08-21T12:05:52;99979.66;;;27.12;18.31
65384;BME280;51986;52.788;41.368;2022-08-21T12:08:33;99982.88;;;27.22;17.90
65384;BME280;51986;52.788;41.368;2022-08-21T12:13:39;99981.69;;;27.46;18.24
65384;BME280;51986;52.788;41.368;2022-08-21T12:16:14;100000.84;;;27.31;17.60
65384;BME280;51986;52.788;41.368;2022-08-21T12:18:42;99977.25;;;27.54;16.97
65384;BME280;51986;52.788;41.368;2022-08-21T12:21:17;99984.81;;;27.16;16.93
65384;BME280;51986;52.788;41.368;2022-08-21T12:27:13;99979.63;;;27.01;16.88
65384;BME280;51986;52.788;41.368;2022-08-21T12:29:51;99972.22;;;26.96;17.08
65384;BME280;51986;52.788;41.368;2022-08-21T12:34:49;99984.84;;;26.62;17.87
65384;BME280;51986;52.788;41.368;2022-08-21T12:37:26;99973.88;;;26.82;18.05
65384;BME280;51986;52.788;41.368;2022-08-21T12:39:59;99982.28;;;26.96;17.74
65384;BME280;51986;52.788;41.368;2022-08-21T12:42:39;99982.94;;;26.74;17.53
65384;BME280;51986;52.788;41.368;2022-08-21T12:45:22;99995.25;;;26.80;17.84
65384;BME280;51986;52.788;41.368;2022-08-21T12:48:00;99982.41;;;26.58;17.76
65384;BME280;51986;52.788;41.368;2022-08-21T12:50:50;99983.47;;;26.83;18.28
65384;BME280;51986;52.788;41.368;2022-08-21T12:53:44;99978.59;;;26.87;18.23
65384;BME280;51986;52.788;41.368;2022-08-21T12:56:18;99954.94;;;26.82;18.26
65384;BME280;51986;52.788;41.368;2022-08-21T12:58:49;99982.16;;;26.62;18.20
65384;BME280;51986;52.788;41.368;2022-08-21T13:04:54;99954.84;;;26.60;18.77
65384;BME280;51986;52.788;41.368;2022-08-21T13:07:07;99982.41;;;26.64;18.79
65384;BME280;51986;52.788;41.368;2022-08-21T13:09:35;99992.88;;;26.94;18.89
65384;BME280;51986;52.788;41.368;2022-08-21T13:12:02;99980.06;;;26.88;19.50
65384;BME280;51986;52.788;41.368;2022-08-21T13:14:39;99973.72;;;26.97;19.21
65384;BME280;51986;52.788;41.368;2022-08-21T13:17:16;99984.31;;;27.01;19.73
65384;BME280;51986;52.788;41.368;2022-08-21T13:19:57;99973.25;;;27.21;20.38
65384;BME280;51986;52.788;41.368;2022-08-21T13:22:26;99987.75;;;27.01;20.93
65384;BME280;51986;52.788;41.368;2022-08-21T13:25:00;99977.38;;;26.88;21.31
65384;BME280;51986;52.788;41.368;2022-08-21T13:27:33;100000.28;;;26.99;21.52
65384;BME280;51986;52.788;41.368;2022-08-21T13:30:20;99990.94;;;27.00;21.61
65384;BME280;51986;52.788;41.368;2022-08-21T13:32:50;99975.47;;;27.11;22.34
65384;BME280;51986;52.788;41.368;2022-08-21T13:35:27;99982.41;;;27.41;22.32
65384;BME280;51986;52.788;41.368;2022-08-21T13:37:55;99957.00;;;27.27;22.29
65384;BME280;51986;52.788;41.368;2022-08-21T13:40:32;99983.59;;;27.34;21.99
65384;BME280;51986;52.788;41.368;2022-08-21T13:43:12;99983.88;;;27.36;22.39
65384;BME280;51986;52.788;41.368;2022-08-21T13:45:51;99972.53;;;27.37;22.70
65384;BME280;51986;52.788;41.368;2022-08-21T13:51:21;99961.94;;;27.28;22.39
65384;BME280;51986;52.788;41.368;2022-08-21T13:54:25;99977.47;;;27.39;21.95
65384;BME280;51986;52.788;41.368;2022-08-21T13:56:54;99986.88;;;27.55;22.32
65384;BME280;51986;52.788;41.368;2022-08-21T13:59:30;99973.75;;;27.25;22.13
65384;BME280;51986;52.788;41.368;2022-08-21T14:04:35;99983.41;;;27.54;21.80
65384;BME280;51986;52.788;41.368;2022-08-21T14:07:19;99968.53;;;26.94;22.70
65384;BME280;51986;52.788;41.368;2022-08-21T14:09:47;99953.78;;;27.06;22.53
65384;BME280;51986;52.788;41.368;2022-08-21T14:12:25;99971.25;;;27.05;22.33
65384;BME280;51986;52.788;41.368;2022-08-21T14:14:55;99967.56;;;27.02;22.69
65384;BME280;51986;52.788;41.368;2022-08-21T14:17:35;99967.06;;;26.93;22.56
65384;BME280;51986;52.788;41.368;2022-08-21T14:20:06;99970.88;;;26.69;22.78
65384;BME280;51986;52.788;41.368;2022-08-21T14:25:15;99959.75;;;26.56;23.19
65384;BME280;51986;52.788;41.368;2022-08-21T14:30:46;99976.50;;;26.17;24.12
65384;BME280;51986;52.788;41.368;2022-08-21T14:33:31;99971.44;;;26.30;24.00